createdAt,value
2019-04-19T04:00:59.982Z,6.97
2019-04-19T04:02:01.063Z,6.95
2019-04-19T04:03:01.050Z,7.00
2019-04-19T04:04:06.494Z,6.97
2019-04-19T04:05:04.986Z,6.95
2019-04-19T04:05:59.983Z,6.99
2019-04-19T04:07:07.103Z,7.00
2019-04-19T04:08:08.815Z,7.05
2019-04-19T04:09:04.560Z,7.03
2019-04-19T04:10:01.621Z,6.99
2019-04-19T04:11:08.270Z,6.87
2019-04-19T04:12:16.205Z,6.97
2019-04-19T04:13:15.848Z,6.84
2019-04-19T04:14:14.964Z,6.82
2019-04-19T04:15:16.704Z,6.78
2019-04-19T04:16:11.535Z,6.67
2019-04-19T04:17:02.041Z,6.69
2019-04-19T04:18:02.742Z,6.79
2019-04-19T04:19:01.910Z,6.75
2019-04-19T04:20:03.218Z,6.85
2019-04-19T04:21:02.826Z,6.84
2019-04-19T04:22:02.867Z,6.82
2019-04-19T04:23:09.336Z,6.81
2019-04-19T04:24:13.049Z,6.89
2019-04-19T04:25:12.616Z,6.82
2019-04-19T04:26:10.131Z,6.78
2019-04-19T04:27:09.719Z,6.74
2019-04-19T04:28:14.291Z,6.74
2019-04-19T04:29:13.649Z,6.82
2019-04-19T04:30:15.260Z,6.69
2019-04-19T04:31:15.086Z,6.69
2019-04-19T04:32:15.079Z,6.75
2019-04-19T04:33:13.372Z,6.69
2019-04-19T04:34:20.738Z,6.64
2019-04-19T04:35:19.408Z,6.77
2019-04-19T04:36:25.384Z,6.70
2019-04-19T04:37:20.523Z,6.77
2019-04-19T04:38:11.950Z,6.74
2019-04-19T04:39:05.302Z,6.74
2019-04-19T04:40:06.296Z,6.72
2019-04-19T04:41:11.400Z,6.66
2019-04-19T04:42:15.698Z,6.69
2019-04-19T04:43:20.298Z,6.77
2019-04-19T04:44:21.938Z,6.63
2019-04-19T04:45:27.873Z,6.66
2019-04-19T04:46:29.189Z,6.81
2019-04-19T04:47:24.380Z,6.67
2019-04-19T04:48:29.051Z,6.85
2019-04-19T04:49:34.579Z,6.85
2019-04-19T04:50:35.524Z,6.87
2019-04-19T04:51:26.243Z,6.95
2019-04-19T04:52:18.247Z,6.99
2019-04-19T04:53:08.858Z,6.97
2019-04-19T04:54:08.162Z,6.96
2019-04-19T04:55:09.232Z,6.93
2019-04-19T04:56:10.441Z,6.99
2019-04-19T04:57:13.900Z,7.03
2019-04-19T04:58:17.048Z,7.06
2019-04-19T04:59:13.442Z,7.00
2019-04-19T05:00:09.771Z,6.97
2019-04-19T05:01:13.744Z,6.89
2019-04-19T05:02:24.938Z,6.84
2019-04-19T05:03:24.157Z,6.82
2019-04-19T05:04:24.978Z,6.75
2019-04-19T05:05:25.523Z,6.75
2019-04-19T05:06:28.133Z,6.67
2019-04-19T05:07:30.166Z,6.72
2019-04-19T05:08:31.054Z,6.75
2019-04-19T05:09:27.992Z,6.70
2019-04-19T05:10:28.190Z,6.74
2019-04-19T05:11:28.264Z,6.67
2019-04-19T05:12:44.195Z,6.63
2019-04-19T05:13:27.397Z,6.69
2019-04-19T05:15:43.454Z,6.70
2019-04-19T05:16:51.430Z,6.82
2019-04-19T05:17:39.410Z,6.81
2019-04-19T05:18:32.089Z,6.79
2019-04-19T05:19:30.738Z,6.81
2019-04-19T05:20:27.847Z,6.84
2019-04-19T05:21:33.075Z,6.77
2019-04-19T05:22:26.423Z,6.79
2019-04-19T05:23:30.326Z,6.88
2019-04-19T05:24:36.809Z,6.87
2019-04-19T05:25:37.852Z,6.87
2019-04-19T05:26:38.925Z,6.95
2019-04-19T05:27:37.159Z,6.96
2019-04-19T05:28:35.882Z,6.95
2019-04-19T05:29:24.371Z,7.05
2019-04-19T05:30:15.263Z,7.03
2019-04-19T05:31:22.657Z,7.11
2019-04-19T05:32:21.743Z,7.06
2019-04-19T05:33:26.948Z,7.07
2019-04-19T05:34:33.424Z,7.06
2019-04-19T05:35:27.481Z,7.15
2019-04-19T05:36:36.159Z,7.21
2019-04-19T05:37:35.186Z,7.23
2019-04-19T05:39:39.594Z,7.35
2019-04-19T05:40:27.977Z,7.40
2019-04-19T05:41:29.692Z,7.47
2019-04-19T05:42:34.544Z,7.50
2019-04-19T05:43:51.616Z,7.57
2019-04-19T05:44:52.353Z,7.63
2019-04-19T05:46:41.880Z,7.73
2019-04-19T05:47:31.353Z,7.77
2019-04-19T05:48:31.553Z,7.82
2019-04-19T05:49:36.181Z,7.85
2019-04-19T05:50:35.772Z,7.88
2019-04-19T05:51:40.832Z,8.05
2019-04-19T05:52:34.347Z,8.15
2019-04-19T05:53:27.910Z,8.19
2019-04-19T05:54:20.090Z,8.27
2019-04-19T05:55:19.618Z,8.41
2019-04-19T05:56:18.390Z,8.41
2019-04-19T05:57:38.502Z,8.58
2019-04-19T05:58:22.975Z,8.64
2019-04-19T05:59:32.013Z,8.78
2019-04-19T06:00:35.980Z,8.91
2019-04-19T06:01:36.310Z,8.92
2019-04-19T06:02:28.323Z,8.99
2019-04-19T06:03:27.563Z,9.10
2019-04-19T06:04:36.781Z,9.22
2019-04-19T06:05:44.547Z,9.37
2019-04-19T06:06:42.373Z,9.46
2019-04-19T06:07:34.720Z,9.66
2019-04-19T06:08:26.548Z,9.74
2019-04-19T06:09:21.794Z,9.84
2019-04-19T06:10:21.334Z,9.98
2019-04-19T06:11:26.762Z,10.04
2019-04-19T06:12:26.269Z,10.22
2019-04-19T06:13:21.980Z,10.28
2019-04-19T06:14:46.516Z,10.48
2019-04-19T06:15:47.371Z,10.56
2019-04-19T06:16:40.491Z,10.63
2019-04-19T06:17:39.656Z,10.72
2019-04-19T06:18:36.163Z,10.87
2019-04-19T06:19:35.064Z,10.93
2019-04-19T06:20:39.452Z,11.04
2019-04-19T06:21:39.520Z,11.05
2019-04-19T06:22:40.625Z,11.22
2019-04-19T06:23:45.745Z,11.15
2019-04-19T06:24:42.602Z,11.29
2019-04-19T06:25:52.890Z,11.37
2019-04-19T06:28:02.650Z,11.69
2019-04-19T06:28:52.302Z,11.75
2019-04-19T06:29:49.257Z,11.83
2019-04-19T06:30:45.719Z,12.00
2019-04-19T06:31:50.985Z,12.06
2019-04-19T06:32:44.897Z,12.22
2019-04-19T06:33:44.493Z,12.21
2019-04-19T06:34:46.824Z,12.25
2019-04-19T06:35:37.341Z,12.46
2019-04-19T06:36:25.237Z,12.42
2019-04-19T06:37:28.577Z,12.61
2019-04-19T06:38:26.701Z,12.68
2019-04-19T06:39:26.671Z,12.78
2019-04-19T06:40:30.983Z,12.86
2019-04-19T06:41:28.482Z,12.97
2019-04-19T06:42:35.841Z,13.13
2019-04-19T06:43:40.956Z,13.19
2019-04-19T06:44:45.888Z,13.25
2019-04-19T06:45:40.327Z,13.44
2019-04-19T06:46:41.172Z,13.52
2019-04-19T06:47:34.352Z,13.54
2019-04-19T06:48:33.095Z,13.68
2019-04-19T06:49:29.788Z,13.68
2019-04-19T06:50:34.765Z,13.77
2019-04-19T06:51:36.845Z,13.97
2019-04-19T06:52:31.771Z,14.03
2019-04-19T06:53:39.673Z,14.15
2019-04-19T06:54:35.072Z,14.28
2019-04-19T06:55:34.494Z,14.41
2019-04-19T06:56:33.427Z,14.45
2019-04-19T06:57:34.198Z,14.54
2019-04-19T06:58:40.249Z,14.58
2019-04-19T06:59:46.251Z,14.77
2019-04-19T07:00:42.576Z,14.84
2019-04-19T07:01:37.196Z,14.92
2019-04-19T07:02:30.506Z,15.06
2019-04-19T07:03:30.128Z,15.22
2019-04-19T07:04:29.984Z,15.35
2019-04-19T07:05:40.615Z,15.29
2019-04-19T07:06:43.894Z,15.51
2019-04-19T07:08:01.011Z,15.61
2019-04-19T07:09:04.223Z,15.62
2019-04-19T07:09:56.486Z,15.77
2019-04-19T07:10:59.065Z,15.80
2019-04-19T07:11:56.410Z,15.82
2019-04-19T07:12:51.421Z,15.86
2019-04-19T07:13:41.626Z,15.92
2019-04-19T07:14:33.613Z,15.95
2019-04-19T07:16:00.359Z,16.02
2019-04-19T07:16:50.129Z,16.09
2019-04-19T07:17:50.040Z,16.26
2019-04-19T07:18:42.322Z,16.26
2019-04-19T07:19:49.830Z,16.41
2019-04-19T07:20:54.688Z,16.43
2019-04-19T07:21:46.917Z,16.50
2019-04-19T07:22:46.981Z,16.56
2019-04-19T07:23:54.673Z,16.69
2019-04-19T07:25:03.592Z,16.61
2019-04-19T07:25:59.558Z,16.76
2019-04-19T07:26:56.617Z,16.90
2019-04-19T07:27:46.341Z,17.01
2019-04-19T07:28:36.859Z,16.96
2019-04-19T07:29:34.149Z,17.12
2019-04-19T07:30:34.973Z,17.29
2019-04-19T07:31:36.440Z,17.31
2019-04-19T07:32:39.749Z,17.49
2019-04-19T07:33:49.448Z,17.63
2019-04-19T07:34:50.615Z,17.68
2019-04-19T07:35:57.276Z,17.95
2019-04-19T07:36:52.930Z,18.31
2019-04-19T07:37:52.245Z,18.52
2019-04-19T07:38:57.590Z,18.93
2019-04-19T07:40:04.241Z,19.14
2019-04-19T07:40:56.519Z,19.49
2019-04-19T07:41:52.478Z,19.79
2019-04-19T07:42:51.197Z,20.10
2019-04-19T07:43:50.404Z,20.56
2019-04-19T07:44:46.054Z,20.99
2019-04-19T07:45:59.060Z,21.52
2019-04-19T07:46:56.559Z,21.79
2019-04-19T07:47:48.944Z,22.22
2019-04-19T07:48:38.435Z,22.38
2019-04-19T07:49:45.850Z,22.62
2019-04-19T07:50:45.710Z,22.60
2019-04-19T07:51:47.589Z,22.81
2019-04-19T07:52:47.347Z,22.73
2019-04-19T07:53:43.894Z,23.08
2019-04-19T07:54:39.405Z,23.20
2019-04-19T07:55:51.647Z,23.37
2019-04-19T07:56:54.436Z,23.44
2019-04-19T07:58:13.595Z,23.71
2019-04-19T07:59:02.563Z,24.06
2019-04-19T08:00:36.891Z,24.45
2019-04-19T08:01:08.039Z,24.39
2019-04-19T08:02:07.327Z,24.66
2019-04-19T08:05:05.823Z,24.32
2019-04-19T08:07:23.601Z,24.68
2019-04-19T08:10:04.010Z,25.14
2019-04-19T08:11:21.896Z,24.95
2019-04-19T08:12:22.697Z,25.36
2019-04-19T08:13:13.541Z,25.46
2019-04-19T08:15:22.122Z,25.47
2019-04-19T08:16:05.982Z,25.68
2019-04-19T08:27:51.171Z,25.88
2019-04-19T08:28:55.909Z,26.10
2019-04-19T08:29:50.324Z,26.48
2019-04-19T08:30:48.651Z,26.92
2019-04-19T08:31:44.620Z,26.93
2019-04-19T08:32:45.024Z,26.96
2019-04-19T08:33:44.897Z,26.85
2019-04-19T08:34:47.002Z,26.80
2019-04-19T08:35:49.623Z,26.75
2019-04-19T08:36:53.379Z,27.00
2019-04-19T08:37:48.470Z,27.02
2019-04-19T08:39:05.410Z,26.78
2019-04-19T08:39:58.561Z,26.75
2019-04-19T08:41:02.335Z,26.58
2019-04-19T08:42:10.668Z,27.05
2019-04-19T08:43:03.399Z,27.32
2019-04-19T08:44:09.337Z,27.65
2019-04-19T08:44:56.220Z,27.63
2019-04-19T08:45:46.982Z,27.14
2019-04-19T08:46:47.242Z,27.33
2019-04-19T08:47:59.209Z,27.35
2019-04-19T08:48:53.509Z,27.36
2019-04-19T08:49:49.756Z,27.63
2019-04-19T08:50:52.877Z,27.75
2019-04-19T08:51:48.726Z,27.73
2019-04-19T08:52:55.348Z,27.82
2019-04-19T08:54:03.362Z,27.92
2019-04-19T08:55:11.153Z,28.32
2019-04-19T08:56:06.968Z,28.48
2019-04-19T08:56:57.517Z,28.45
2019-04-19T08:57:57.409Z,28.64
2019-04-19T08:59:05.155Z,28.62
2019-04-19T09:00:12.223Z,28.62
2019-04-19T09:01:15.230Z,29.01
2019-04-19T09:02:10.692Z,29.08
2019-04-19T09:03:03.035Z,28.97
2019-04-19T09:04:09.117Z,28.85
2019-04-19T09:05:09.088Z,28.82
2019-04-19T09:06:48.361Z,28.67
2019-04-19T09:07:34.143Z,28.42
2019-04-19T09:08:13.699Z,28.79
2019-04-19T09:09:08.211Z,28.86
2019-04-19T09:10:22.164Z,28.75
2019-04-19T09:11:11.278Z,28.94
2019-04-19T09:12:13.195Z,29.12
2019-04-19T09:13:22.772Z,29.08
2019-04-19T09:14:12.579Z,28.89
2019-04-19T09:15:12.546Z,29.01
2019-04-19T09:16:12.745Z,28.42
2019-04-19T09:17:14.248Z,28.42
2019-04-19T09:19:18.430Z,28.69
2019-04-19T09:20:15.134Z,28.84
2019-04-19T09:21:10.704Z,29.02
2019-04-19T09:22:14.548Z,29.14
2019-04-19T09:23:11.613Z,28.82
2019-04-19T09:24:00.127Z,28.25
2019-04-19T09:25:03.584Z,28.05
2019-04-19T09:26:05.851Z,28.17
2019-04-19T09:27:10.251Z,28.69
2019-04-19T09:28:29.380Z,28.85
2019-04-19T09:29:24.563Z,28.69
2019-04-19T09:30:17.521Z,28.67
2019-04-19T09:31:13.167Z,28.57
2019-04-19T09:32:04.608Z,28.48
2019-04-19T09:32:55.413Z,28.63
2019-04-19T09:34:06.064Z,28.76
2019-04-19T09:35:01.780Z,28.75
2019-04-19T09:36:03.546Z,28.54
2019-04-19T09:37:06.668Z,28.42
2019-04-19T09:38:07.144Z,28.96
2019-04-19T09:39:14.738Z,28.76
2019-04-19T09:40:06.216Z,28.78
2019-04-19T09:41:02.988Z,28.45
2019-04-19T09:42:02.195Z,28.59
2019-04-19T09:43:14.061Z,28.42
2019-04-19T09:44:08.277Z,28.38
2019-04-19T09:45:00.771Z,28.25
2019-04-19T09:45:57.736Z,28.14
2019-04-19T09:46:57.764Z,28.41
2019-04-19T09:47:59.013Z,28.76
2019-04-19T09:49:11.781Z,29.10
2019-04-19T09:50:09.775Z,29.69
2019-04-19T09:51:15.089Z,29.87
2019-04-19T09:52:20.549Z,30.21
2019-04-19T09:53:26.206Z,29.95
2019-04-19T09:54:23.963Z,30.12
2019-04-19T09:55:22.810Z,30.21
2019-04-19T09:56:17.270Z,30.30
2019-04-19T09:57:20.865Z,30.03
2019-04-19T09:58:18.385Z,29.81
2019-04-19T09:59:10.242Z,29.79
2019-04-19T10:00:06.951Z,30.15
2019-04-19T10:01:00.422Z,30.34
2019-04-19T10:02:03.635Z,30.34
2019-04-19T10:03:03.841Z,29.68
2019-04-19T10:04:04.158Z,29.38
2019-04-19T10:05:01.118Z,29.38
2019-04-19T10:06:02.406Z,29.91
2019-04-19T10:07:01.335Z,30.18
2019-04-19T10:08:01.784Z,30.69
2019-04-19T10:09:08.676Z,30.63
2019-04-19T10:10:07.056Z,30.92
2019-04-19T10:11:03.090Z,31.03
2019-04-19T10:12:02.865Z,31.31
2019-04-19T10:13:03.517Z,31.49
2019-04-19T10:14:02.592Z,31.84
2019-04-19T10:15:04.099Z,32.22
2019-04-19T10:16:04.040Z,31.15
2019-04-19T10:17:04.519Z,30.90
2019-04-19T10:18:03.314Z,30.94
2019-04-19T10:19:06.378Z,30.91
2019-04-19T10:20:04.614Z,30.83
2019-04-19T10:21:04.928Z,31.20
2019-04-19T10:22:04.624Z,31.42
2019-04-19T10:23:05.178Z,31.21
2019-04-19T10:24:08.059Z,30.83
2019-04-19T10:25:05.136Z,30.88
2019-04-19T10:26:09.418Z,30.92
2019-04-19T10:27:06.151Z,30.54
2019-04-19T10:28:05.575Z,30.73
2019-04-19T10:29:16.757Z,30.72
2019-04-19T10:30:06.271Z,31.33
2019-04-19T10:31:05.654Z,31.27
2019-04-19T10:32:06.613Z,31.43
2019-04-19T10:33:06.678Z,31.46
2019-04-19T10:34:07.723Z,31.43
2019-04-19T10:35:07.350Z,31.62
2019-04-19T10:36:06.648Z,31.03
2019-04-19T10:37:07.883Z,31.34
2019-04-19T10:38:07.333Z,31.28
2019-04-19T10:39:07.676Z,31.00
2019-04-19T10:40:07.843Z,30.99
2019-04-19T10:41:07.471Z,31.39
2019-04-19T10:42:08.267Z,31.55
2019-04-19T10:43:07.833Z,31.96
2019-04-19T10:44:13.733Z,32.00
2019-04-19T10:45:08.196Z,31.84
2019-04-19T10:46:08.978Z,31.52
2019-04-19T10:47:10.006Z,31.51
2019-04-19T10:48:09.670Z,31.80
2019-04-19T10:49:16.406Z,31.84
2019-04-19T10:50:20.616Z,31.42
2019-04-19T10:51:10.668Z,31.36
2019-04-19T10:52:10.339Z,31.42
2019-04-19T10:53:10.383Z,31.37
2019-04-19T10:54:10.719Z,31.52
2019-04-19T10:55:10.633Z,31.80
2019-04-19T10:56:10.200Z,32.18
2019-04-19T10:57:10.472Z,32.46
2019-04-19T10:58:11.608Z,32.58
2019-04-19T10:59:10.744Z,32.58
2019-04-19T11:00:11.303Z,32.53
2019-04-19T11:01:11.425Z,32.58
2019-04-19T11:02:11.292Z,32.78
2019-04-19T11:03:12.722Z,32.31
2019-04-19T11:04:12.937Z,32.48
2019-04-19T11:05:11.844Z,32.53
2019-04-19T11:06:12.567Z,32.95
2019-04-19T11:07:12.222Z,32.83
2019-04-19T11:08:12.757Z,32.64
2019-04-19T11:09:12.580Z,32.74
2019-04-19T11:10:13.687Z,32.63
2019-04-19T11:11:13.839Z,32.95
2019-04-19T11:12:13.557Z,32.82
2019-04-19T11:13:13.309Z,32.46
2019-04-19T11:14:14.311Z,31.93
2019-04-19T11:15:13.675Z,32.22
2019-04-19T11:16:15.224Z,32.27
2019-04-19T11:17:14.057Z,32.43
2019-04-19T11:18:14.230Z,32.59
2019-04-19T11:19:20.971Z,32.86
2019-04-19T11:20:26.192Z,33.12
2019-04-19T11:21:15.842Z,33.50
2019-04-19T11:22:14.960Z,33.19
2019-04-19T11:23:15.597Z,33.14
2019-04-19T11:24:15.809Z,33.09
2019-04-19T11:25:15.503Z,33.14
2019-04-19T11:26:16.867Z,32.64
2019-04-19T11:27:16.873Z,32.74
2019-04-19T11:28:16.067Z,32.80
2019-04-19T11:29:16.241Z,33.12
2019-04-19T11:30:17.029Z,32.71
2019-04-19T11:31:18.877Z,32.41
2019-04-19T11:32:17.858Z,32.41
2019-04-19T11:33:16.986Z,32.68
2019-04-19T11:34:17.264Z,32.71
2019-04-19T11:35:17.414Z,32.92
2019-04-19T11:36:17.635Z,32.86
2019-04-19T11:37:18.443Z,32.92
2019-04-19T11:38:18.825Z,32.31
2019-04-19T11:39:18.973Z,32.46
2019-04-19T11:40:19.418Z,32.85
2019-04-19T11:41:18.873Z,32.63
2019-04-19T11:42:19.281Z,32.53
2019-04-19T11:43:19.815Z,32.97
2019-04-19T11:44:24.134Z,32.85
2019-04-19T11:45:19.763Z,33.43
2019-04-19T11:46:20.160Z,33.22
2019-04-19T11:47:19.546Z,33.11
2019-04-19T11:48:20.589Z,32.77
2019-04-19T11:49:28.606Z,32.82
2019-04-19T11:50:20.093Z,33.15
2019-04-19T11:51:21.529Z,33.05
2019-04-19T11:52:21.851Z,33.43
2019-04-19T11:53:20.642Z,33.24
2019-04-19T11:54:20.903Z,33.69
2019-04-19T11:55:22.231Z,34.02
2019-04-19T11:56:22.603Z,33.99
2019-04-19T11:57:22.659Z,33.87
2019-04-19T11:58:22.266Z,33.79
2019-04-19T11:59:32.128Z,33.45
2019-04-19T12:00:22.044Z,33.19
2019-04-19T12:01:22.114Z,33.52
2019-04-19T12:02:23.945Z,33.27
2019-04-19T12:03:22.485Z,33.12
2019-04-19T12:04:23.913Z,32.77
2019-04-19T12:05:27.287Z,33.00
2019-04-19T12:06:23.029Z,33.49
2019-04-19T12:07:24.211Z,33.74
2019-04-19T12:08:24.594Z,33.80
2019-04-19T12:09:24.744Z,33.52
2019-04-19T12:10:24.232Z,34.11
2019-04-19T12:11:24.293Z,34.30
2019-04-19T12:12:25.322Z,34.17
2019-04-19T12:13:24.886Z,34.21
2019-04-19T12:14:26.886Z,34.02
2019-04-19T12:15:26.763Z,33.58
2019-04-19T12:16:24.866Z,33.90
2019-04-19T12:17:25.301Z,33.96
2019-04-19T12:18:26.218Z,33.87
2019-04-19T12:19:36.159Z,34.16
2019-04-19T12:20:26.804Z,34.61
2019-04-19T12:21:27.248Z,34.71
2019-04-19T12:22:25.977Z,34.88
2019-04-19T12:23:26.121Z,34.57
2019-04-19T12:24:26.659Z,34.08
2019-04-19T12:25:27.817Z,34.45
2019-04-19T12:26:27.436Z,34.78
2019-04-19T12:27:27.596Z,34.64
2019-04-19T12:28:27.849Z,34.67
2019-04-19T12:29:36.562Z,35.00
2019-04-19T12:30:27.402Z,35.17
2019-04-19T12:31:27.645Z,34.58
2019-04-19T12:32:27.750Z,34.75
2019-04-19T12:33:29.089Z,34.83
2019-04-19T12:34:28.802Z,34.78
2019-04-19T12:35:29.347Z,34.36
2019-04-19T12:36:28.947Z,34.92
2019-04-19T12:37:29.048Z,35.24
2019-04-19T12:38:28.765Z,35.02
2019-04-19T12:39:28.942Z,34.73
2019-04-19T12:40:29.693Z,34.60
2019-04-19T12:41:30.091Z,34.85
2019-04-19T12:42:29.478Z,34.95
2019-04-19T12:43:29.902Z,35.02
2019-04-19T12:44:31.070Z,34.32
2019-04-19T12:45:30.310Z,34.73
2019-04-19T12:46:30.876Z,35.26
2019-04-19T12:47:31.146Z,35.29
2019-04-19T12:48:31.871Z,34.39
2019-04-19T12:49:31.043Z,34.01
2019-04-19T12:50:33.015Z,34.10
2019-04-19T12:51:32.233Z,34.16
2019-04-19T12:52:31.435Z,34.33
2019-04-19T12:53:32.765Z,34.32
2019-04-19T12:54:32.013Z,34.51
2019-04-19T12:55:32.377Z,34.32
2019-04-19T12:56:32.065Z,34.86
2019-04-19T12:57:32.249Z,34.48
2019-04-19T12:58:32.434Z,34.61
2019-04-19T12:59:33.823Z,34.50
2019-04-19T13:00:33.783Z,34.61
2019-04-19T13:01:32.994Z,34.77
2019-04-19T13:02:33.696Z,34.99
2019-04-19T13:03:33.955Z,35.24
2019-04-19T13:04:33.543Z,35.18
2019-04-19T13:05:33.731Z,35.19
2019-04-19T13:06:33.911Z,34.54
2019-04-19T13:07:36.259Z,34.14
2019-04-19T13:08:34.775Z,34.20
2019-04-19T13:09:35.003Z,34.42
2019-04-19T13:10:35.350Z,34.55
2019-04-19T13:11:34.977Z,34.70
2019-04-19T13:12:35.021Z,34.24
2019-04-19T13:13:36.137Z,34.10
2019-04-19T13:14:35.601Z,34.60
2019-04-19T13:15:36.379Z,34.29
2019-04-19T13:16:36.626Z,34.58
2019-04-19T13:17:36.137Z,34.16
2019-04-19T13:18:36.230Z,34.18
2019-04-19T13:19:37.490Z,34.74
2019-04-19T13:20:37.511Z,34.80
2019-04-19T13:21:36.703Z,34.99
2019-04-19T13:22:36.885Z,35.30
2019-04-19T13:23:38.157Z,35.66
2019-04-19T13:24:38.394Z,35.29
2019-04-19T13:25:37.495Z,35.88
2019-04-19T13:26:38.792Z,35.31
2019-04-19T13:27:45.608Z,35.61
2019-04-19T13:28:38.004Z,35.64
2019-04-19T13:29:38.185Z,35.44
2019-04-19T13:30:44.308Z,35.36
2019-04-19T13:31:38.821Z,35.33
2019-04-19T13:32:39.825Z,35.55
2019-04-19T13:33:38.927Z,35.27
2019-04-19T13:34:39.214Z,35.19
2019-04-19T13:35:39.350Z,34.60
2019-04-19T13:36:40.494Z,34.01
2019-04-19T13:37:41.048Z,33.62
2019-04-19T13:38:41.185Z,33.74
2019-04-19T13:39:40.460Z,34.01
2019-04-19T13:40:40.680Z,34.51
2019-04-19T13:41:40.970Z,34.83
2019-04-19T13:42:41.254Z,34.93
2019-04-19T13:43:40.838Z,34.61
2019-04-19T13:44:40.979Z,34.55
2019-04-19T13:45:41.335Z,33.94
2019-04-19T13:46:42.515Z,33.95
2019-04-19T13:47:42.787Z,34.29
2019-04-19T13:48:42.915Z,34.20
2019-04-19T13:49:42.433Z,34.29
2019-04-19T13:50:44.348Z,34.35
2019-04-19T13:51:42.778Z,34.14
2019-04-19T13:52:42.487Z,34.38
2019-04-19T13:53:42.698Z,34.27
2019-04-19T13:54:43.023Z,33.90
2019-04-19T13:55:42.983Z,34.03
2019-04-19T13:56:43.159Z,34.11
2019-04-19T13:57:43.894Z,34.36
2019-04-19T13:58:43.509Z,34.47
2019-04-19T13:59:51.030Z,33.95
2019-04-19T14:00:44.750Z,33.81
2019-04-19T14:01:44.038Z,33.87
2019-04-19T14:02:45.378Z,34.16
2019-04-19T14:03:45.548Z,34.05
2019-04-19T14:04:44.566Z,34.30
2019-04-19T14:05:45.951Z,34.48
2019-04-19T14:06:44.972Z,34.57
2019-04-19T14:07:45.342Z,34.52
2019-04-19T14:08:45.349Z,34.71
2019-04-19T14:09:45.508Z,34.51
2019-04-19T14:10:45.608Z,34.23
2019-04-19T14:11:47.359Z,33.77
2019-04-19T14:12:47.131Z,33.20
2019-04-19T14:13:53.291Z,33.49
2019-04-19T14:14:46.617Z,33.84
2019-04-19T14:15:47.429Z,33.71
2019-04-19T14:16:47.860Z,33.73
2019-04-19T14:17:47.629Z,33.46
2019-04-19T14:18:47.212Z,33.69
2019-04-19T14:19:47.244Z,34.20
2019-04-19T14:20:50.275Z,34.52
2019-04-19T14:21:48.729Z,35.00
2019-04-19T14:22:47.785Z,34.75
2019-04-19T14:23:49.077Z,34.70
2019-04-19T14:24:51.198Z,34.57
2019-04-19T14:25:49.375Z,34.51
2019-04-19T14:26:52.145Z,34.77
2019-04-19T14:27:49.091Z,34.74
2019-04-19T14:28:49.940Z,34.77
2019-04-19T14:29:49.069Z,34.61
2019-04-19T14:30:49.272Z,34.57
2019-04-19T14:31:50.375Z,34.08
2019-04-19T14:32:49.615Z,33.95
2019-04-19T14:35:21.896Z,34.30
2019-04-19T14:36:22.080Z,33.65
2019-04-19T14:37:22.497Z,33.58
2019-04-19T14:38:23.577Z,33.55
2019-04-19T14:39:22.770Z,33.84
2019-04-19T14:40:23.706Z,33.42
2019-04-19T14:41:23.237Z,33.79
2019-04-19T14:42:25.947Z,33.71
2019-04-19T14:43:24.752Z,33.62
2019-04-19T14:44:23.558Z,33.32
2019-04-19T14:45:23.967Z,33.14
2019-04-19T14:46:24.847Z,33.47
2019-04-19T14:47:24.109Z,32.93
2019-04-19T14:48:29.688Z,33.00
2019-04-19T14:49:24.959Z,33.12
2019-04-19T14:50:25.196Z,33.22
2019-04-19T14:51:28.712Z,32.95
2019-04-19T14:52:25.901Z,33.20
2019-04-19T14:53:26.444Z,33.09
2019-04-19T14:54:25.669Z,32.65
2019-04-19T14:55:25.571Z,32.90
2019-04-19T14:56:26.036Z,32.60
2019-04-19T14:57:25.921Z,32.73
2019-04-19T14:58:26.095Z,32.78
2019-04-19T15:00:59.353Z,33.00
2019-04-19T15:01:58.554Z,32.53
2019-04-19T15:02:58.851Z,32.63
2019-04-19T15:03:59.135Z,32.63
2019-04-19T15:04:59.110Z,32.82
2019-04-19T15:05:59.717Z,32.74
2019-04-19T15:06:59.938Z,32.74
2019-04-19T15:07:59.659Z,32.77
2019-04-19T15:08:59.846Z,32.55
2019-04-19T15:10:00.030Z,32.23
2019-04-19T15:11:00.220Z,32.51
2019-04-19T15:12:00.489Z,32.56
2019-04-19T15:13:00.945Z,32.83
2019-04-19T15:14:00.767Z,32.65
2019-04-19T15:15:00.947Z,31.66
2019-04-19T15:16:02.076Z,31.40
2019-04-19T15:17:02.610Z,31.37
2019-04-19T15:18:02.116Z,31.49
2019-04-19T15:19:02.410Z,31.64
2019-04-19T15:20:01.883Z,31.78
2019-04-19T15:21:09.742Z,31.77
2019-04-19T15:22:02.246Z,31.54
2019-04-19T15:23:02.478Z,31.39
2019-04-19T15:24:02.718Z,30.78
2019-04-19T15:25:02.784Z,31.02
2019-04-19T15:26:02.969Z,30.72
2019-04-19T15:27:03.154Z,30.78
2019-04-19T15:28:04.512Z,30.78
2019-04-19T15:29:04.835Z,30.48
2019-04-19T15:30:03.704Z,30.77
2019-04-19T15:31:03.868Z,30.80
2019-04-19T15:32:04.220Z,31.31
2019-04-19T15:33:04.568Z,31.51
2019-04-19T15:34:04.414Z,31.61
2019-04-19T15:35:05.660Z,31.55
2019-04-19T15:36:06.164Z,31.58
2019-04-19T15:37:04.950Z,31.58
2019-04-19T15:38:05.858Z,31.74
2019-04-19T15:39:06.028Z,31.73
2019-04-19T15:40:05.500Z,31.58
2019-04-19T15:41:06.194Z,31.31
2019-04-19T15:42:06.585Z,30.90
2019-04-19T15:43:06.052Z,30.73
2019-04-19T15:44:06.457Z,30.96
2019-04-19T15:45:07.214Z,30.66
2019-04-19T15:46:07.965Z,30.88
2019-04-19T15:47:06.779Z,30.69
2019-04-19T15:48:07.001Z,31.02
2019-04-19T15:49:08.188Z,31.39
2019-04-19T15:50:07.500Z,31.39
2019-04-19T15:51:16.114Z,31.14
2019-04-19T15:52:08.088Z,30.99
2019-04-19T15:53:09.155Z,30.69
2019-04-19T15:54:08.162Z,30.63
2019-04-19T15:55:08.226Z,30.43
2019-04-19T15:56:08.508Z,30.08
2019-04-19T15:57:08.592Z,30.12
2019-04-19T15:58:08.774Z,29.75
2019-04-19T15:59:09.172Z,29.90
2019-04-19T16:00:09.946Z,29.86
2019-04-19T16:01:10.045Z,29.86
2019-04-19T16:02:10.264Z,29.93
2019-04-19T16:03:10.039Z,29.87
2019-04-19T16:04:10.104Z,29.95
2019-04-19T16:05:10.337Z,29.78
2019-04-19T16:06:10.233Z,29.56
2019-04-19T16:07:10.415Z,29.56
2019-04-19T16:08:10.986Z,29.36
2019-04-19T16:09:10.961Z,28.88
2019-04-19T16:10:13.901Z,28.48
2019-04-19T16:11:11.164Z,28.10
2019-04-19T16:12:11.556Z,27.86
2019-04-19T16:13:11.743Z,27.59
2019-04-19T16:14:12.207Z,27.40
2019-04-19T16:15:11.862Z,26.93
2019-04-19T16:16:12.141Z,26.71
2019-04-19T16:17:13.306Z,26.44
2019-04-19T16:18:13.664Z,26.41
2019-04-19T16:19:12.589Z,26.34
2019-04-19T16:20:13.436Z,26.33
2019-04-19T16:21:23.918Z,26.22
2019-04-19T16:22:14.176Z,26.18
2019-04-19T16:23:14.157Z,26.07
2019-04-19T16:24:13.490Z,25.96
2019-04-19T16:25:14.863Z,26.07
2019-04-19T16:26:14.999Z,26.26
2019-04-19T16:27:15.298Z,26.37
2019-04-19T16:28:15.112Z,26.25
2019-04-19T16:29:24.403Z,25.99
2019-04-19T16:30:14.514Z,25.47
2019-04-19T16:31:14.761Z,25.33
2019-04-19T16:32:14.870Z,25.16
2019-04-19T16:33:15.662Z,25.16
2019-04-19T16:34:16.890Z,25.06
2019-04-19T16:35:15.929Z,25.08
2019-04-19T16:36:16.773Z,25.18
2019-04-19T16:37:16.742Z,25.33
2019-04-19T16:38:16.345Z,25.51
2019-04-19T16:39:17.183Z,25.50
2019-04-19T16:40:16.302Z,25.75
2019-04-19T16:41:17.018Z,25.77
2019-04-19T16:42:16.690Z,25.83
2019-04-19T16:43:17.467Z,25.75
2019-04-19T16:44:17.816Z,25.72
2019-04-19T16:45:17.710Z,25.53
2019-04-19T16:46:20.836Z,25.33
2019-04-19T16:47:17.507Z,25.10
2019-04-19T16:48:18.719Z,25.03
2019-04-19T16:49:18.370Z,24.80
2019-04-19T16:50:18.662Z,24.89
2019-04-19T16:51:18.923Z,24.86
2019-04-19T16:52:18.566Z,24.68
2019-04-19T16:53:19.806Z,24.58
2019-04-19T16:54:18.658Z,24.60
2019-04-19T16:55:18.827Z,24.58
2019-04-19T16:56:19.583Z,24.29
2019-04-19T16:57:25.201Z,24.33
2019-04-19T16:58:19.320Z,24.18
2019-04-19T16:59:19.713Z,24.10
2019-04-19T17:00:20.547Z,23.96
2019-04-19T17:01:20.864Z,23.93
2019-04-19T17:02:19.985Z,23.84
2019-04-19T17:03:21.521Z,23.78
2019-04-19T17:04:23.148Z,23.58
2019-04-19T17:05:20.885Z,23.50
2019-04-19T17:06:20.661Z,23.44
2019-04-19T17:07:20.843Z,23.40
2019-04-19T17:08:21.754Z,23.36
2019-04-19T17:09:21.193Z,23.34
2019-04-19T17:10:22.914Z,23.28
2019-04-19T17:11:21.796Z,23.21
2019-04-19T17:12:21.723Z,23.27
2019-04-19T17:13:22.685Z,23.24
2019-04-19T17:14:23.097Z,23.27
2019-04-19T17:15:23.307Z,23.37
2019-04-19T17:16:23.244Z,23.46
2019-04-19T17:17:22.747Z,23.41
2019-04-19T17:18:22.827Z,23.37
2019-04-19T17:19:22.959Z,23.43
2019-04-19T17:20:23.747Z,23.43
2019-04-19T17:21:24.006Z,23.32
2019-04-19T17:22:26.575Z,23.28
2019-04-19T17:23:24.442Z,23.20
2019-04-19T17:24:24.962Z,23.20